Alexander, ME

9:57 AM EST on November 28, 2014 (GMT -0500)
HeatherWood Gardens | Change Station
CLOSE
Current Station
Personal Weather Station
Location: Baring, ME
Elevation: 110 ft
Nearby Weather Stations

Elev 110 ft 45.13 °N, 67.32 °W | Updated 7 minutes ago

Partly Cloudy
Partly Cloudy
22.1 °F
Feels Like 22 °F
N
0.0
Wind Variable Wind from NE
Gusts 8.0 mph

Today
High -- | Low -- °F
--% Chance of Precip.
Yesterday
High -- | Low -- °F
Precip. -- in
6:44 AM 3:50 PM
Waxing Crescent, 41% visible
Pressure 30.03 in
Visibility 10.0 miles
Clouds Clear
Windchill 22 °F
Dew Point 19 °F
Humidity 89%
Rainfall 0.00 in
Snow Depth Not available.
UV 1 out of 12
Pollen .10 out of 12
Air Quality Not available.
Flu Activity Not available.
METAR KBHB 281435Z AUTO 36008KT 10SM CLR M06/M08 A3003 RMK AO1

More Conditions Fewer Conditions

Pressure 30.03 in
Visibility 10.0 miles
Clouds Clear
Windchill 22 °F
Dew Point 19 °F
Humidity 89%
Rainfall 0.00 in
Snow Depth Not available.
UV 1 out of 12
Pollen .10 out of 12
Air Quality Not available.
Flu Activity Not available.
METAR KBHB 281435Z AUTO 36008KT 10SM CLR M06/M08 A3003 RMK AO1

More Conditions Fewer Conditions

10-Day Weather Forecast

Almanac

Astronomy

Nov. 28, 2014 Rise Set
Actual Time
Civil Twilight
Nautical Twilight
Astronomical Twilight
Moon
Length of Visible Light
Length of Day
Tomorrow will be .
, % of the Moon is Illuminated

Today's Extremes

State Highs State Lows

Community

WunderPhotos

Upload Photos

1,774,222 photos uploaded!

WunderBlogs® & News

Nearby

Air Quality

  Air Quality AQ Index Pollutant
Not available.

Snow Depth

Station Depth Elevation

Earthquake Activity

City Distance Mag. Time & Date
Minimum magnitude displayed is 2.5.

Coastal Water Temperatures

Place Temperature

Nearby Weather Stations